createdAt,value
2018-03-19T00:01:30.867Z,1.50
2018-03-19T00:03:57.608Z,1.30
2018-03-19T00:06:24.305Z,1.00
2018-03-19T00:08:51.055Z,1.20
2018-03-19T00:11:17.753Z,1.20
2018-03-19T00:13:44.449Z,1.30
2018-03-19T00:16:11.172Z,1.33
2018-03-19T00:18:37.878Z,1.23
2018-03-19T00:21:04.577Z,1.40
2018-03-19T00:23:31.301Z,1.30
2018-03-19T00:25:58.053Z,1.10
2018-03-19T00:28:24.763Z,1.20
2018-03-19T00:30:51.501Z,1.00
2018-03-19T00:33:18.233Z,1.43
2018-03-19T00:35:44.933Z,1.30
2018-03-19T00:38:11.641Z,1.40
2018-03-19T00:40:38.378Z,1.50
2018-03-19T00:43:05.077Z,1.23
2018-03-19T00:45:31.782Z,1.43
2018-03-19T00:47:58.516Z,1.30
2018-03-19T00:50:25.222Z,1.30
2018-03-19T00:52:51.928Z,1.20
2018-03-19T00:55:18.657Z,1.20
2018-03-19T00:57:45.372Z,1.50
2018-03-19T01:00:12.073Z,1.20
2018-03-19T01:02:38.803Z,1.10
2018-03-19T01:05:05.513Z,1.20
2018-03-19T01:07:32.225Z,1.30
2018-03-19T01:09:58.958Z,1.10
2018-03-19T01:12:25.917Z,1.30
2018-03-19T01:14:52.613Z,1.30
2018-03-19T01:17:19.348Z,1.17
2018-03-19T01:19:46.060Z,1.20
2018-03-19T01:22:12.770Z,1.30
2018-03-19T01:24:39.525Z,1.20
2018-03-19T01:27:06.232Z,1.20
2018-03-19T01:29:32.937Z,1.10
2018-03-19T01:31:59.662Z,1.20
2018-03-19T01:34:26.365Z,1.07
2018-03-19T01:36:53.068Z,1.30
2018-03-19T01:39:19.805Z,1.10
2018-03-19T01:41:46.504Z,1.30
2018-03-19T01:44:13.229Z,1.10
2018-03-19T01:46:39.977Z,1.20
2018-03-19T01:49:06.695Z,1.03
2018-03-19T01:51:33.548Z,1.20
2018-03-19T01:54:00.289Z,1.23
2018-03-19T01:56:26.999Z,1.10
2018-03-19T01:58:53.767Z,1.10
2018-03-19T02:01:20.493Z,1.20
2018-03-19T02:03:47.202Z,1.13
2018-03-19T02:06:13.905Z,1.20
2018-03-19T02:08:40.654Z,1.00
2018-03-19T02:11:07.354Z,1.30
2018-03-19T02:13:34.076Z,1.20
2018-03-19T02:16:01.046Z,1.13
2018-03-19T02:18:27.771Z,1.33
2018-03-19T02:20:54.473Z,1.20
2018-03-19T02:23:21.212Z,1.00
2018-03-19T02:25:47.925Z,1.07
2018-03-19T02:28:14.621Z,1.00
2018-03-19T02:30:41.365Z,1.10
2018-03-19T02:33:08.068Z,1.40
2018-03-19T02:35:34.877Z,1.03
2018-03-19T02:38:01.618Z,1.10
2018-03-19T02:40:28.549Z,1.17
2018-03-19T02:42:55.250Z,1.20
2018-03-19T02:45:21.978Z,1.00
2018-03-19T02:47:48.687Z,1.20
2018-03-19T02:50:15.390Z,1.10
2018-03-19T02:52:42.148Z,1.20
2018-03-19T02:55:08.854Z,1.20
2018-03-19T02:57:35.828Z,1.17
2018-03-19T03:00:02.571Z,1.00
2018-03-19T03:02:29.279Z,1.10
2018-03-19T03:04:55.993Z,1.10
2018-03-19T03:07:22.768Z,1.03
2018-03-19T03:09:49.501Z,0.97
2018-03-19T03:12:16.201Z,1.10
2018-03-19T03:14:42.944Z,1.10
2018-03-19T03:17:09.652Z,1.37
2018-03-19T03:19:36.390Z,1.30
2018-03-19T03:22:03.133Z,1.00
2018-03-19T03:24:29.871Z,1.00
2018-03-19T03:26:56.597Z,1.20
2018-03-19T03:29:23.342Z,1.17
2018-03-19T03:31:50.068Z,1.17
2018-03-19T03:34:16.764Z,1.00
2018-03-19T03:36:43.506Z,1.03
2018-03-19T03:39:10.216Z,1.20
2018-03-19T03:41:36.962Z,1.10
2018-03-19T03:44:03.702Z,1.17
2018-03-19T03:46:30.404Z,1.20
2018-03-19T03:48:57.113Z,1.40
2018-03-19T03:51:23.850Z,1.00
2018-03-19T03:53:50.559Z,1.10
2018-03-19T03:56:17.262Z,1.10
2018-03-19T03:58:43.989Z,0.90
2018-03-19T04:01:10.701Z,1.20
2018-03-19T04:03:37.413Z,1.10
2018-03-19T04:06:04.163Z,0.90
2018-03-19T04:08:30.860Z,1.10
2018-03-19T04:10:57.570Z,1.03
2018-03-19T04:13:24.297Z,0.93
2018-03-19T04:15:51.009Z,1.10
2018-03-19T04:18:17.721Z,1.13
2018-03-19T04:20:44.456Z,1.10
2018-03-19T04:23:11.161Z,1.23
2018-03-19T04:25:37.857Z,1.10
2018-03-19T04:28:04.580Z,1.20
2018-03-19T04:30:31.277Z,1.00
2018-03-19T04:32:58.013Z,1.20
2018-03-19T04:35:24.912Z,1.10
2018-03-19T04:37:51.664Z,1.30
2018-03-19T04:40:18.353Z,1.30
2018-03-19T04:42:45.091Z,1.27
2018-03-19T04:45:11.814Z,1.10
2018-03-19T04:47:38.517Z,0.93
2018-03-19T04:50:05.249Z,1.13
2018-03-19T04:52:31.957Z,1.00
2018-03-19T04:54:58.670Z,1.20
2018-03-19T04:57:25.398Z,1.50
2018-03-19T04:59:52.109Z,1.30
2018-03-19T05:02:18.820Z,1.30
2018-03-19T05:04:45.564Z,1.17
2018-03-19T05:07:12.281Z,1.30
2018-03-19T05:09:38.980Z,1.50
2018-03-19T05:12:05.721Z,1.20
2018-03-19T05:14:32.422Z,1.27
2018-03-19T05:16:59.129Z,1.20
2018-03-19T05:19:25.867Z,1.03
2018-03-19T05:21:52.578Z,1.10
2018-03-19T05:24:19.289Z,1.07
2018-03-19T05:26:46.014Z,1.10
2018-03-19T05:29:12.754Z,1.40
2018-03-19T05:31:39.460Z,1.33
2018-03-19T05:34:06.205Z,1.07
2018-03-19T05:36:32.909Z,1.20
2018-03-19T05:38:59.639Z,0.93
2018-03-19T05:41:26.378Z,1.03
2018-03-19T05:43:53.085Z,1.00
2018-03-19T05:46:19.789Z,0.97
2018-03-19T05:48:46.521Z,1.00
2018-03-19T05:51:13.244Z,1.37
2018-03-19T05:53:39.968Z,1.00
2018-03-19T05:56:06.702Z,1.20
2018-03-19T05:58:33.405Z,1.20
2018-03-19T06:01:00.121Z,1.00
2018-03-19T06:03:26.857Z,1.30
2018-03-19T06:05:53.558Z,0.90
2018-03-19T06:08:20.259Z,1.47
2018-03-19T06:10:46.996Z,1.40
2018-03-19T06:13:13.696Z,1.10
2018-03-19T06:15:40.429Z,1.17
2018-03-19T06:18:07.385Z,1.17
2018-03-19T06:20:34.099Z,1.40
2018-03-19T06:23:00.801Z,1.30
2018-03-19T06:25:27.551Z,1.00
2018-03-19T06:27:54.257Z,1.13
2018-03-19T06:30:20.973Z,1.40
2018-03-19T06:32:47.726Z,1.20
2018-03-19T06:35:14.435Z,1.00
2018-03-19T06:37:41.140Z,1.20
2018-03-19T06:40:07.890Z,1.20
2018-03-19T06:42:34.602Z,1.10
2018-03-19T06:45:01.325Z,1.20
2018-03-19T06:47:28.126Z,1.50
2018-03-19T06:49:54.828Z,0.90
2018-03-19T06:52:21.568Z,1.20
2018-03-19T06:54:48.299Z,1.10
2018-03-19T06:57:15.010Z,1.53
2018-03-19T06:59:41.713Z,1.10
2018-03-19T07:02:08.454Z,1.47
2018-03-19T07:04:35.157Z,1.33
2018-03-19T07:07:01.866Z,1.20
2018-03-19T07:09:28.606Z,1.20
2018-03-19T07:11:55.314Z,1.00
2018-03-19T07:14:22.030Z,1.10
2018-03-19T07:16:48.754Z,1.10
2018-03-19T07:19:15.458Z,1.10
2018-03-19T07:21:42.169Z,1.40
2018-03-19T07:24:08.904Z,1.20
2018-03-19T07:26:35.609Z,1.20
2018-03-19T07:29:02.315Z,1.20
2018-03-19T07:31:29.047Z,1.20
2018-03-19T07:33:55.790Z,1.20
2018-03-19T07:36:22.485Z,1.00
2018-03-19T07:38:49.217Z,1.40
2018-03-19T07:41:15.921Z,1.43
2018-03-19T07:43:42.630Z,1.20
2018-03-19T07:46:09.491Z,1.00
2018-03-19T07:48:36.232Z,1.23
2018-03-19T07:51:02.982Z,1.50
2018-03-19T07:53:29.714Z,1.30
2018-03-19T07:55:56.409Z,1.40
2018-03-19T07:58:23.117Z,1.27
2018-03-19T08:00:49.849Z,1.20
2018-03-19T08:03:16.577Z,1.10
2018-03-19T08:05:43.312Z,1.10
2018-03-19T08:08:10.050Z,1.20
2018-03-19T08:10:36.761Z,1.20
2018-03-19T08:13:03.464Z,1.30
2018-03-19T08:15:30.202Z,0.90
2018-03-19T08:17:56.903Z,1.10
2018-03-19T08:20:23.613Z,1.20
2018-03-19T08:22:50.347Z,1.13
2018-03-19T08:25:17.094Z,1.03
2018-03-19T08:27:43.821Z,1.57
2018-03-19T08:30:10.621Z,1.33
2018-03-19T08:32:37.334Z,1.13
2018-03-19T08:35:04.059Z,1.10
2018-03-19T08:37:30.805Z,1.30
2018-03-19T08:39:57.514Z,1.10
2018-03-19T08:42:24.221Z,1.40
2018-03-19T08:44:51.221Z,1.40
2018-03-19T08:47:17.937Z,1.10
2018-03-19T08:49:44.646Z,1.43
2018-03-19T08:52:11.388Z,1.40
2018-03-19T08:54:38.094Z,1.33
2018-03-19T08:57:04.810Z,1.10
2018-03-19T08:59:31.542Z,1.50
2018-03-19T09:01:58.242Z,1.20
2018-03-19T09:04:24.943Z,1.27
2018-03-19T09:06:51.675Z,1.00
2018-03-19T09:09:18.378Z,1.13
2018-03-19T09:11:45.089Z,0.93
2018-03-19T09:14:11.817Z,1.20
2018-03-19T09:16:38.521Z,1.37
2018-03-19T09:19:05.223Z,1.10
2018-03-19T09:21:31.961Z,1.00
2018-03-19T09:23:58.669Z,1.10
2018-03-19T09:26:25.379Z,1.27
2018-03-19T09:28:52.117Z,1.10
2018-03-19T09:31:18.821Z,1.07
2018-03-19T09:33:45.531Z,1.20
2018-03-19T09:36:12.281Z,1.37
2018-03-19T09:38:38.988Z,1.40
2018-03-19T09:41:05.697Z,1.20
2018-03-19T09:43:32.421Z,1.10
2018-03-19T09:45:59.133Z,1.10
2018-03-19T09:48:25.840Z,0.90
2018-03-19T09:50:52.595Z,1.10
2018-03-19T09:53:19.292Z,1.27
2018-03-19T09:55:45.997Z,1.10
2018-03-19T09:58:12.721Z,1.23
2018-03-19T10:00:39.420Z,1.10
2018-03-19T10:03:06.126Z,1.20
2018-03-19T10:05:32.860Z,1.10
2018-03-19T10:07:59.579Z,1.00
2018-03-19T10:10:26.288Z,1.00
2018-03-19T10:12:53.027Z,1.10
2018-03-19T10:15:19.921Z,1.30
2018-03-19T10:17:46.642Z,1.20
2018-03-19T10:20:13.384Z,1.00
2018-03-19T10:22:40.139Z,1.10
2018-03-19T10:25:06.855Z,1.10
2018-03-19T10:27:33.607Z,1.20
2018-03-19T10:30:00.331Z,1.20
2018-03-19T10:32:27.043Z,1.37
2018-03-19T10:34:53.797Z,1.40
2018-03-19T10:37:20.540Z,1.20
2018-03-19T10:39:47.253Z,1.40
2018-03-19T10:42:14.121Z,1.33
2018-03-19T10:44:40.882Z,1.07
2018-03-19T10:47:07.599Z,1.00
2018-03-19T10:49:34.330Z,1.20
2018-03-19T10:52:01.083Z,1.30
2018-03-19T10:54:27.791Z,1.10
2018-03-19T10:56:54.508Z,1.10
2018-03-19T10:59:21.261Z,1.10
2018-03-19T11:01:47.979Z,1.37
2018-03-19T11:04:14.692Z,1.20
2018-03-19T11:07:00.054Z,1.27
2018-03-19T11:09:28.388Z,1.60
2018-03-19T11:11:55.505Z,1.40
2018-03-19T11:14:22.191Z,1.20
2018-03-19T11:16:48.907Z,1.30
2018-03-19T11:19:15.624Z,1.17
2018-03-19T11:21:42.411Z,1.30
2018-03-19T11:24:09.147Z,1.60
2018-03-19T11:26:35.867Z,1.33
2018-03-19T11:29:02.619Z,1.60
2018-03-19T11:31:29.343Z,1.50
2018-03-19T11:33:56.071Z,1.40
2018-03-19T11:36:22.823Z,1.40
2018-03-19T11:38:49.551Z,1.40
2018-03-19T11:41:16.279Z,1.40
2018-03-19T11:43:43.020Z,1.30
2018-03-19T11:46:09.743Z,1.30
2018-03-19T11:48:36.463Z,1.40
2018-03-19T11:51:03.210Z,1.33
2018-03-19T11:53:29.959Z,1.30
2018-03-19T11:55:56.724Z,1.60
2018-03-19T11:58:23.463Z,1.30
2018-03-19T12:00:50.183Z,1.50
2018-03-19T12:03:16.911Z,1.60
2018-03-19T12:05:43.659Z,1.40
2018-03-19T12:08:10.380Z,1.50
2018-03-19T12:10:37.096Z,1.60
2018-03-19T12:13:03.846Z,1.70
2018-03-19T12:15:30.563Z,1.40
2018-03-19T12:17:57.278Z,1.17
2018-03-19T12:20:24.031Z,1.30
2018-03-19T12:22:50.733Z,1.23
2018-03-19T12:25:17.473Z,1.40
2018-03-19T12:27:44.201Z,1.07
2018-03-19T12:30:10.905Z,1.10
2018-03-19T12:32:37.606Z,1.00
2018-03-19T12:35:04.349Z,1.10
2018-03-19T12:37:31.051Z,1.50
2018-03-19T12:39:57.766Z,1.20
2018-03-19T12:42:24.531Z,1.20
2018-03-19T12:44:51.246Z,1.30
2018-03-19T12:47:17.962Z,1.37
2018-03-19T12:49:45.577Z,1.30
2018-03-19T12:52:12.290Z,1.40
2018-03-19T12:54:39.005Z,1.40
2018-03-19T12:57:05.844Z,1.30
2018-03-19T12:59:32.557Z,1.50
2018-03-19T13:01:59.278Z,1.50
2018-03-19T13:04:26.014Z,1.30
2018-03-19T13:06:52.717Z,1.50
2018-03-19T13:09:19.421Z,1.60
2018-03-19T13:11:46.165Z,1.50
2018-03-19T13:14:12.865Z,1.70
2018-03-19T13:16:39.593Z,1.60
2018-03-19T13:19:06.330Z,1.60
2018-03-19T13:21:33.039Z,1.33
2018-03-19T13:23:59.765Z,1.50
2018-03-19T13:26:26.499Z,1.60
2018-03-19T13:28:53.208Z,2.00
2018-03-19T13:31:19.917Z,1.40
2018-03-19T13:33:46.660Z,1.57
2018-03-19T13:36:13.364Z,1.53
2018-03-19T13:38:40.077Z,1.83
2018-03-19T13:41:06.808Z,1.77
2018-03-19T13:43:33.517Z,1.90
2018-03-19T13:46:00.225Z,1.53
2018-03-19T13:48:26.974Z,1.60
2018-03-19T13:50:53.688Z,1.60
2018-03-19T13:53:20.412Z,1.80
2018-03-19T13:55:47.150Z,1.80
2018-03-19T13:58:13.861Z,1.70
2018-03-19T14:00:40.557Z,1.50
2018-03-19T14:03:07.285Z,1.70
2018-03-19T14:05:33.996Z,2.07
2018-03-19T14:08:00.702Z,1.77
2018-03-19T14:10:27.426Z,1.90
2018-03-19T14:12:54.137Z,1.70
2018-03-19T14:15:20.845Z,2.20
2018-03-19T14:17:47.583Z,1.87
2018-03-19T14:20:14.388Z,2.27
2018-03-19T14:22:41.094Z,2.17
2018-03-19T14:25:07.821Z,2.00
2018-03-19T14:27:34.558Z,1.90
2018-03-19T14:30:01.246Z,1.97
2018-03-19T14:32:27.986Z,1.70
2018-03-19T14:34:54.688Z,1.83
2018-03-19T14:37:21.399Z,1.43
2018-03-19T14:39:48.149Z,2.30
2018-03-19T14:42:14.867Z,1.73
2018-03-19T14:44:41.593Z,2.23
2018-03-19T14:47:08.325Z,1.77
2018-03-19T14:49:35.031Z,1.50
2018-03-19T14:52:01.738Z,1.60
2018-03-19T14:54:28.481Z,1.47
2018-03-19T14:56:55.494Z,1.67
2018-03-19T14:59:22.206Z,1.50
2018-03-19T15:01:48.935Z,1.70
2018-03-19T15:04:15.632Z,1.50
2018-03-19T15:06:42.345Z,1.40
2018-03-19T15:09:09.092Z,1.40
2018-03-19T15:11:35.802Z,1.43
2018-03-19T15:14:02.515Z,1.40
2018-03-19T15:16:29.261Z,1.60
2018-03-19T15:18:55.971Z,1.70
2018-03-19T15:21:22.681Z,1.73
2018-03-19T15:23:49.424Z,1.70
2018-03-19T15:26:16.136Z,1.93
2018-03-19T15:28:42.906Z,1.70
2018-03-19T15:31:09.635Z,1.60
2018-03-19T15:33:36.341Z,1.70
2018-03-19T15:36:03.049Z,1.87
2018-03-19T15:38:29.788Z,1.60
2018-03-19T15:40:56.497Z,1.83
2018-03-19T15:43:23.200Z,1.40
2018-03-19T15:45:49.930Z,1.60
2018-03-19T15:48:16.633Z,1.83
2018-03-19T15:50:43.353Z,1.80
2018-03-19T15:53:10.088Z,1.53
2018-03-19T15:55:36.798Z,1.57
2018-03-19T15:58:03.502Z,1.50
2018-03-19T16:00:30.243Z,1.70
2018-03-19T16:02:56.941Z,1.57
2018-03-19T16:05:23.641Z,1.90
2018-03-19T16:07:50.381Z,1.23
2018-03-19T16:10:17.078Z,1.80
2018-03-19T16:12:43.911Z,3.23
2018-03-19T16:15:10.621Z,2.40
2018-03-19T16:17:37.340Z,1.80
2018-03-19T16:20:04.076Z,1.60
2018-03-19T16:22:30.787Z,1.90
2018-03-19T16:24:57.485Z,1.70
2018-03-19T16:27:24.231Z,1.30
2018-03-19T16:29:50.932Z,1.73
2018-03-19T16:32:17.640Z,1.70
2018-03-19T16:34:44.365Z,1.57
2018-03-19T16:37:11.073Z,1.87
2018-03-19T16:39:37.777Z,1.73
2018-03-19T16:42:04.514Z,1.93
2018-03-19T16:44:31.211Z,1.67
2018-03-19T16:46:57.929Z,1.80
2018-03-19T16:49:24.761Z,2.23
2018-03-19T16:51:51.474Z,1.60
2018-03-19T16:54:18.197Z,1.50
2018-03-19T16:56:44.940Z,1.70
2018-03-19T16:59:11.646Z,1.67
2018-03-19T17:01:38.362Z,2.10
2018-03-19T17:04:05.091Z,1.90
2018-03-19T17:06:31.801Z,1.97
2018-03-19T17:08:58.527Z,1.67
2018-03-19T17:11:25.267Z,1.83
2018-03-19T17:13:52.015Z,1.97
2018-03-19T17:16:18.722Z,2.47
2018-03-19T17:18:45.463Z,2.10
2018-03-19T17:21:12.169Z,2.40
2018-03-19T17:23:38.866Z,2.20
2018-03-19T17:26:05.597Z,2.20
2018-03-19T17:28:32.298Z,2.00
2018-03-19T17:30:59.009Z,2.10
2018-03-19T17:33:25.743Z,2.27
2018-03-19T17:35:52.447Z,2.40
2018-03-19T17:38:19.154Z,2.70
2018-03-19T17:40:45.881Z,2.80
2018-03-19T17:43:12.587Z,2.80
2018-03-19T17:45:39.310Z,2.37
2018-03-19T17:48:06.072Z,2.93
2018-03-19T17:50:32.769Z,3.00
2018-03-19T17:52:59.532Z,2.70
2018-03-19T17:55:26.277Z,2.57
2018-03-19T17:57:52.993Z,2.53
2018-03-19T18:00:19.705Z,2.50
2018-03-19T18:02:46.445Z,2.80
2018-03-19T18:05:13.160Z,2.10
2018-03-19T18:07:39.868Z,2.43
2018-03-19T18:10:06.614Z,2.03
2018-03-19T18:12:33.353Z,2.40
2018-03-19T18:15:00.063Z,2.10
2018-03-19T18:17:26.808Z,2.33
2018-03-19T18:19:53.548Z,2.50
2018-03-19T18:22:20.259Z,3.20
2018-03-19T18:24:46.997Z,3.23
2018-03-19T18:27:13.709Z,2.87
2018-03-19T18:29:40.409Z,3.30
2018-03-19T18:32:07.168Z,2.37
2018-03-19T18:34:33.866Z,3.00
2018-03-19T18:37:00.567Z,2.07
2018-03-19T18:39:27.283Z,2.20
2018-03-19T18:41:53.975Z,2.10
2018-03-19T18:44:20.672Z,1.77
2018-03-19T18:46:47.396Z,1.93
2018-03-19T18:49:14.091Z,2.10
2018-03-19T18:51:40.789Z,1.70
2018-03-19T18:54:07.516Z,2.10
2018-03-19T18:56:34.204Z,2.03
2018-03-19T18:59:00.892Z,1.73
2018-03-19T19:01:27.647Z,1.87
2018-03-19T19:03:54.335Z,1.53
2018-03-19T19:06:21.016Z,2.00
2018-03-19T19:08:47.751Z,1.53
2018-03-19T19:11:14.461Z,1.77
2018-03-19T19:13:41.169Z,2.00
2018-03-19T19:16:07.905Z,1.50
2018-03-19T19:18:34.711Z,1.73
2018-03-19T19:21:01.401Z,1.37
2018-03-19T19:23:28.127Z,1.50
2018-03-19T19:25:54.826Z,1.60
2018-03-19T19:28:21.522Z,1.50
2018-03-19T19:30:48.259Z,2.10
2018-03-19T19:33:14.958Z,2.33
2018-03-19T19:35:41.685Z,1.77
2018-03-19T19:38:08.403Z,1.73
2018-03-19T19:40:35.111Z,1.90
2018-03-19T19:43:01.804Z,1.70
2018-03-19T19:45:28.544Z,1.30
2018-03-19T19:47:55.271Z,1.33
2018-03-19T19:50:21.951Z,1.50
2018-03-19T19:52:48.695Z,1.30
2018-03-19T19:55:15.407Z,1.53
2018-03-19T19:57:42.107Z,1.20
2018-03-19T20:00:08.827Z,1.50
2018-03-19T20:02:35.531Z,1.40
2018-03-19T20:05:02.243Z,1.50
2018-03-19T20:07:28.971Z,1.20
2018-03-19T20:09:55.683Z,1.50
2018-03-19T20:12:22.368Z,1.23
2018-03-19T20:14:49.091Z,1.20
2018-03-19T20:17:15.886Z,1.23
2018-03-19T20:19:42.579Z,1.27
2018-03-19T20:22:09.310Z,1.20
2018-03-19T20:24:35.991Z,1.23
2018-03-19T20:27:02.683Z,1.43
2018-03-19T20:29:29.430Z,1.40
2018-03-19T20:31:56.132Z,1.30
2018-03-19T20:34:22.821Z,1.27
2018-03-19T20:36:49.564Z,1.10
2018-03-19T20:39:16.261Z,1.33
2018-03-19T20:41:42.954Z,1.77
2018-03-19T20:44:09.703Z,1.13
2018-03-19T20:46:36.395Z,1.30
2018-03-19T20:49:03.237Z,1.20
2018-03-19T20:51:30.047Z,1.10
2018-03-19T20:53:56.770Z,1.00
2018-03-19T20:56:23.467Z,1.10
2018-03-19T20:58:50.373Z,1.23
2018-03-19T21:01:17.082Z,1.73
2018-03-19T21:03:43.771Z,2.03
2018-03-19T21:06:10.495Z,1.50
2018-03-19T21:08:37.241Z,1.43
2018-03-19T21:11:03.942Z,1.70
2018-03-19T21:13:30.656Z,1.43
2018-03-19T21:15:57.358Z,1.50
2018-03-19T21:18:24.071Z,1.40
2018-03-19T21:20:50.870Z,1.23
2018-03-19T21:23:17.592Z,1.23
2018-03-19T21:25:44.282Z,1.10
2018-03-19T21:28:11.011Z,1.10
2018-03-19T21:30:37.731Z,1.13
2018-03-19T21:33:04.433Z,1.10
2018-03-19T21:35:31.158Z,1.00
2018-03-19T21:37:57.842Z,1.20
2018-03-19T21:40:24.559Z,1.10
2018-03-19T21:42:51.283Z,1.23
2018-03-19T21:45:17.982Z,1.10
2018-03-19T21:47:44.666Z,1.20
2018-03-19T21:50:11.383Z,1.20
2018-03-19T21:52:38.346Z,1.47
2018-03-19T21:55:05.049Z,1.23
2018-03-19T21:57:31.785Z,1.40
2018-03-19T21:59:58.471Z,1.40
2018-03-19T22:02:25.161Z,1.40
2018-03-19T22:04:51.939Z,1.20
2018-03-19T22:07:18.651Z,1.20
2018-03-19T22:09:45.352Z,1.23
2018-03-19T22:12:12.071Z,1.10
2018-03-19T22:14:38.758Z,0.70
2018-03-19T22:17:05.450Z,1.50
2018-03-19T22:19:32.162Z,1.10
2018-03-19T22:21:58.852Z,1.07
2018-03-19T22:24:25.598Z,0.90
2018-03-19T22:26:52.285Z,1.50
2018-03-19T22:29:18.974Z,1.00
2018-03-19T22:31:45.661Z,1.10
2018-03-19T22:34:12.402Z,1.10
2018-03-19T22:36:39.123Z,1.00
2018-03-19T22:39:06.580Z,1.27
2018-03-19T22:41:33.308Z,0.80
2018-03-19T22:43:59.987Z,0.83
2018-03-19T22:46:26.684Z,0.93
2018-03-19T22:48:53.395Z,0.73
2018-03-19T22:51:20.099Z,1.07
2018-03-19T22:53:46.794Z,1.40
2018-03-19T22:56:13.534Z,1.10
2018-03-19T22:58:40.249Z,1.20
2018-03-19T23:01:06.962Z,1.70
2018-03-19T23:03:33.699Z,1.60
2018-03-19T23:06:00.434Z,1.23
2018-03-19T23:08:27.119Z,1.13
2018-03-19T23:10:53.828Z,1.17
2018-03-19T23:13:20.516Z,1.00
2018-03-19T23:15:47.224Z,1.00
2018-03-19T23:18:13.945Z,1.00
2018-03-19T23:20:40.629Z,0.80
2018-03-19T23:23:07.346Z,0.90
2018-03-19T23:25:34.059Z,0.67
2018-03-19T23:28:00.756Z,1.50
2018-03-19T23:30:27.446Z,1.33
2018-03-19T23:32:54.178Z,0.90
2018-03-19T23:35:20.871Z,1.00
2018-03-19T23:37:47.574Z,0.90
2018-03-19T23:40:14.293Z,0.90
2018-03-19T23:42:41.007Z,0.70
2018-03-19T23:45:07.697Z,0.70
2018-03-19T23:47:34.419Z,0.70
2018-03-19T23:50:01.119Z,1.10
2018-03-19T23:52:28.379Z,1.40
2018-03-19T23:54:55.107Z,0.70
2018-03-19T23:57:21.828Z,0.60
2018-03-19T23:59:49.470Z,0.57
